Decoded Metar for KMHL ( in ) (IATA:) | Meteo·Mobile Aviation Weather
aviador You're here:

KMHL Decoded Metar

in
Report Time2019-08-18 14:55:00
UTC Time2019-08-18 14:53:56
Flight Rules vfr VFR
Wind290° at 11 Gusting to 15 kt
W.Decomp.*RWY 27: 10.3 kt HW 3.8 kt RCW
RWY 36: 3.8 kt HW 10.3 kt LCW
Visibility9999 m
Phenomena:N/A
Clouds:Scattered 035 Hf
Scattered 042 Hf
Scattered 110 Hf
Expected CloudBase > 800 ft AGL from Temp-Dew spread
CeilingNone
Temp22°C
Dew Point20°C (88% RH)
AAT21.7°C
QNH1013 hPa
Raw Report
KMHL 181455Z AUTO 29011G15KT 10SM SCT035 SCT042 SCT110 22/20 A2992
RMK AO2 TSNO=

Extra information for KMHL:More info

Social comments